Time;durP1;ratioP1;P1;durP2;ratioP2;P2;SDS_P1;SDS_P2;PMS_P1;PMS_P2;Temp;Humidity;BMP_temperature;BMP_pressure;BME280_temperature;BME280_humidity;BME280_pressure;Samples;Min_cycle;Max_cycle;Signal;HPM_P1;HPM_P2
2023/04/12 00:02:07;;;;;;;;;3.75;3.00;;;;;-147.17;100.00;-15917.19;4988908;28;51156;-59
2023/04/12 00:04:33;;;;;;;;;4.50;3.00;;;;;-147.17;100.00;-15917.19;4991807;28;53090;-59
2023/04/12 00:06:59;;;;;;;;;5.00;4.00;;;;;-147.17;100.00;-15917.19;4991537;28;51188;-58
2023/04/12 00:09:29;;;;;;;;;2.25;2.25;;;;;-147.17;100.00;-15917.19;4993112;28;51449;-58
2023/04/12 00:11:55;;;;;;;;;2.25;2.00;;;;;-147.17;100.00;-15917.19;4989403;28;51247;-58
2023/04/12 00:14:21;;;;;;;;;2.50;2.50;;;;;-147.17;100.00;-15917.19;4994206;28;53590;-58
2023/04/12 00:16:46;;;;;;;;;3.50;3.25;;;;;-147.17;100.00;-15917.19;4988805;28;51112;-58
2023/04/12 00:19:11;;;;;;;;;4.00;3.75;;;;;-147.17;100.00;-15917.19;4994527;28;51455;-58
2023/04/12 00:21:37;;;;;;;;;4.00;4.00;;;;;-147.17;100.00;-15917.19;4988036;28;51399;-58
2023/04/12 00:24:02;;;;;;;;;3.25;2.00;;;;;-147.17;100.00;-15917.19;4995050;28;51859;-59
2023/04/12 00:26:28;;;;;;;;;4.00;3.25;;;;;-147.17;100.00;-15917.19;4988841;28;51024;-59
2023/04/12 00:28:53;;;;;;;;;3.75;3.00;;;;;-147.17;100.00;-15917.19;4976526;28;51248;-59
2023/04/12 00:31:18;;;;;;;;;3.25;2.75;;;;;-147.17;100.00;-15917.19;4999984;28;51141;-59
2023/04/12 00:33:44;;;;;;;;;5.75;4.00;;;;;-147.17;100.00;-15917.19;4990828;28;58692;-58
2023/04/12 00:36:10;;;;;;;;;6.00;5.00;;;;;-147.17;100.00;-15917.19;4990256;28;51231;-58
2023/04/12 00:38:35;;;;;;;;;3.75;3.75;;;;;-147.17;100.00;-15917.19;4992761;28;51200;-58
2023/04/12 00:41:02;;;;;;;;;5.25;4.00;;;;;-147.17;100.00;-15917.19;4991013;28;51129;-58
2023/04/12 00:43:27;;;;;;;;;3.75;3.00;;;;;-147.17;100.00;-15917.19;4972942;28;51956;-59
2023/04/12 00:45:55;;;;;;;;;5.25;5.00;;;;;-147.17;100.00;-15917.19;4979284;28;51121;-59
2023/04/12 00:48:22;;;;;;;;;5.75;4.75;;;;;-147.17;100.00;-15917.19;4999550;28;50993;-59
2023/04/12 00:50:48;;;;;;;;;4.50;4.25;;;;;-147.17;100.00;-15917.19;4986212;28;51303;-59
2023/04/12 00:53:13;;;;;;;;;5.50;4.25;;;;;-147.17;100.00;-15917.19;4990646;28;51781;-59
2023/04/12 00:55:44;;;;;;;;;4.00;3.50;;;;;-147.17;100.00;-15917.19;5003586;28;50943;-58
2023/04/12 00:58:09;;;;;;;;;4.00;3.25;;;;;-147.17;100.00;-15917.19;4991963;28;51067;-58
2023/04/12 01:00:35;;;;;;;;;6.75;5.00;;;;;-147.17;100.00;-15917.19;4993513;28;51334;-59
2023/04/12 01:03:01;;;;;;;;;5.00;4.25;;;;;-147.17;100.00;-15917.19;4992467;28;51352;-59
2023/04/12 01:05:27;;;;;;;;;3.25;3.00;;;;;-147.17;100.00;-15917.19;4982903;28;51158;-59
2023/04/12 01:08:13;;;;;;;;;3.00;2.75;;;;;-147.17;100.00;-15917.19;4992542;28;50928;-59
2023/04/12 01:11:19;;;;;;;;;5.25;4.25;;;;;-147.17;100.00;-15917.19;4988741;28;51180;-59
2023/04/12 01:13:51;;;;;;;;;4.00;3.50;;;;;-147.17;100.00;-15917.19;4986805;28;51115;-59
2023/04/12 01:16:33;;;;;;;;;3.00;3.00;;;;;-147.17;100.00;-15917.19;4994771;28;51046;-58
2023/04/12 01:19:04;;;;;;;;;2.00;2.00;;;;;-147.17;100.00;-15917.19;4976717;28;51456;-58
2023/04/12 01:21:39;;;;;;;;;4.25;3.00;;;;;-147.17;100.00;-15917.19;4985307;28;51325;-58
2023/04/12 01:24:20;;;;;;;;;2.00;2.00;;;;;-147.17;100.00;-15917.19;4988210;28;51751;-62
2023/04/12 01:26:48;;;;;;;;;4.75;3.00;;;;;-147.17;100.00;-15917.19;4990980;28;51069;-59
2023/04/12 01:29:15;;;;;;;;;3.00;3.00;;;;;-147.17;100.00;-15917.19;4985015;28;51005;-58
2023/04/12 01:32:07;;;;;;;;;3.75;3.50;;;;;-147.17;100.00;-15917.19;4991894;28;52581;-58
2023/04/12 01:34:35;;;;;;;;;4.25;4.00;;;;;-147.17;100.00;-15917.19;4981637;28;51254;-58
2023/04/12 01:37:02;;;;;;;;;3.75;3.00;;;;;-147.17;100.00;-15917.19;4990230;28;51124;-59
2023/04/12 01:39:32;;;;;;;;;3.00;3.00;;;;;-147.17;100.00;-15917.19;4990325;28;51322;-59
2023/04/12 01:41:57;;;;;;;;;2.25;2.25;;;;;-147.17;100.00;-15917.19;4991923;28;50927;-59
2023/04/12 01:44:23;;;;;;;;;3.50;3.25;;;;;-147.17;100.00;-15917.19;4989664;28;52061;-58
2023/04/12 01:46:49;;;;;;;;;5.00;3.00;;;;;-147.17;100.00;-15917.19;4996519;28;51061;-58
2023/04/12 01:49:16;;;;;;;;;2.00;2.00;;;;;-147.17;100.00;-15917.19;4993176;28;51044;-58
2023/04/12 01:52:00;;;;;;;;;4.00;4.00;;;;;-147.17;100.00;-15917.19;4991389;28;50975;-58
2023/04/12 01:54:29;;;;;;;;;3.00;2.75;;;;;-147.17;100.00;-15917.19;4992367;28;51736;-59
2023/04/12 01:57:01;;;;;;;;;2.00;2.00;;;;;-147.17;100.00;-15917.19;4990106;28;51196;-59
2023/04/12 01:59:31;;;;;;;;;3.75;3.25;;;;;-147.17;100.00;-15917.19;4980221;28;51106;-59
2023/04/12 02:01:57;;;;;;;;;1.75;1.50;;;;;-147.17;100.00;-15917.19;4994900;28;51140;-59
2023/04/12 02:04:26;;;;;;;;;3.50;2.50;;;;;-147.17;100.00;-15917.19;4991745;28;51999;-59
2023/04/12 02:06:52;;;;;;;;;3.25;2.00;;;;;-147.17;100.00;-15917.19;4991498;28;51172;-59
2023/04/12 02:09:18;;;;;;;;;2.50;2.50;;;;;-147.17;100.00;-15917.19;4991772;28;51248;-58
2023/04/12 02:11:47;;;;;;;;;2.25;2.25;;;;;-147.17;100.00;-15917.19;4988123;28;50997;-59
2023/04/12 02:14:13;;;;;;;;;5.00;4.00;;;;;-147.17;100.00;-15917.19;4983093;28;51953;-59
2023/04/12 02:16:41;;;;;;;;;3.50;3.00;;;;;-147.17;100.00;-15917.19;4999553;28;50993;-58
2023/04/12 02:19:07;;;;;;;;;3.00;3.00;;;;;-147.17;100.00;-15917.19;4981226;28;51091;-59
2023/04/12 02:21:42;;;;;;;;;2.25;2.00;;;;;-147.17;100.00;-15917.19;5011111;28;51021;-58
2023/04/12 02:24:09;;;;;;;;;4.00;4.00;;;;;-147.17;100.00;-15917.19;4990983;28;51216;-59
2023/04/12 02:26:36;;;;;;;;;2.00;2.00;;;;;-147.17;100.00;-15917.19;4991129;28;51031;-59
2023/04/12 02:29:01;;;;;;;;;3.75;3.75;;;;;-147.17;100.00;-15917.19;4989753;28;51230;-58
2023/04/12 02:31:27;;;;;;;;;5.50;3.00;;;;;-147.17;100.00;-15917.19;4986974;28;51211;-59
2023/04/12 02:33:52;;;;;;;;;3.75;2.50;;;;;-147.17;100.00;-15917.19;4987982;28;51425;-59
2023/04/12 02:36:17;;;;;;;;;2.00;2.00;;;;;-147.17;100.00;-15917.19;4992066;28;52217;-59
2023/04/12 02:38:43;;;;;;;;;3.00;2.00;;;;;-147.17;100.00;-15917.19;4995318;28;51199;-59
2023/04/12 02:41:08;;;;;;;;;3.00;2.50;;;;;-147.17;100.00;-15917.19;4994602;28;51100;-58
2023/04/12 02:43:33;;;;;;;;;3.00;2.00;;;;;-147.17;100.00;-15917.19;4992244;28;57712;-59
2023/04/12 02:45:59;;;;;;;;;2.50;2.50;;;;;-147.17;100.00;-15917.19;4996955;28;51000;-58
2023/04/12 02:48:24;;;;;;;;;3.00;3.00;;;;;-147.17;100.00;-15917.19;5009890;28;51068;-59
2023/04/12 02:50:50;;;;;;;;;3.00;2.25;;;;;-147.17;100.00;-15917.19;4995241;28;51067;-59
2023/04/12 02:53:15;;;;;;;;;3.50;2.50;;;;;-147.17;100.00;-15917.19;4984576;28;56839;-60
2023/04/12 02:55:41;;;;;;;;;2.75;2.00;;;;;-147.17;100.00;-15917.19;5003441;28;51138;-59
2023/04/12 02:58:06;;;;;;;;;2.00;2.00;;;;;-147.17;100.00;-15917.19;4992949;28;51000;-59
2023/04/12 03:00:32;;;;;;;;;3.00;3.00;;;;;-147.17;100.00;-15917.19;4994743;28;51394;-59
2023/04/12 03:03:00;;;;;;;;;1.25;1.00;;;;;-147.17;100.00;-15917.19;4984136;28;53199;-58
2023/04/12 03:05:26;;;;;;;;;3.25;2.50;;;;;-147.17;100.00;-15917.19;4989026;28;51012;-59
2023/04/12 03:07:51;;;;;;;;;2.00;1.25;;;;;-147.17;100.00;-15917.19;4995596;28;51334;-59
2023/04/12 03:10:17;;;;;;;;;1.75;1.75;;;;;-147.17;100.00;-15917.19;4995745;28;51096;-58
2023/04/12 03:12:42;;;;;;;;;2.25;2.00;;;;;-147.17;100.00;-15917.19;4986209;28;52232;-58
2023/04/12 03:15:08;;;;;;;;;2.25;2.00;;;;;-147.17;100.00;-15917.19;4994537;28;51124;-58
2023/04/12 03:17:33;;;;;;;;;2.25;2.25;;;;;-147.17;100.00;-15917.19;5000967;28;51177;-58
2023/04/12 03:20:08;;;;;;;;;1.00;1.00;;;;;-147.17;100.00;-15917.19;4988443;28;51258;-58
2023/04/12 03:22:35;;;;;;;;;1.00;1.00;;;;;-147.17;100.00;-15917.19;4988838;28;51390;-59
2023/04/12 03:25:01;;;;;;;;;2.50;1.50;;;;;-147.17;100.00;-15917.19;4984233;28;51172;-59
2023/04/12 03:27:27;;;;;;;;;3.75;2.00;;;;;-147.17;100.00;-15917.19;5001609;28;51081;-59
2023/04/12 03:29:52;;;;;;;;;2.25;2.00;;;;;-147.17;100.00;-15917.19;4986844;28;51216;-58
2023/04/12 03:32:19;;;;;;;;;1.75;1.75;;;;;-147.17;100.00;-15917.19;4990761;28;52607;-58
2023/04/12 03:34:45;;;;;;;;;0.00;0.00;;;;;-147.17;100.00;-15917.19;4990516;28;51228;-58
2023/04/12 03:37:10;;;;;;;;;0.00;0.00;;;;;-147.17;100.00;-15917.19;4994356;28;51135;-58
2023/04/12 03:39:35;;;;;;;;;0.00;0.00;;;;;-147.17;100.00;-15917.19;4993779;28;51157;-59
2023/04/12 03:42:00;;;;;;;;;0.00;0.00;;;;;-147.17;100.00;-15917.19;4994369;28;51845;-58
2023/04/12 03:44:26;;;;;;;;;0.00;0.00;;;;;-147.17;100.00;-15917.19;4986912;28;51069;-58
2023/04/12 03:46:51;;;;;;;;;0.00;0.00;;;;;-147.17;100.00;-15917.19;4999172;28;51134;-58
2023/04/12 03:49:17;;;;;;;;;0.00;0.00;;;;;-147.17;100.00;-15917.19;4992459;28;51410;-58
2023/04/12 03:51:42;;;;;;;;;0.00;0.00;;;;;-147.17;100.00;-15917.19;4989005;28;52371;-58
2023/04/12 03:54:09;;;;;;;;;0.00;0.00;;;;;-147.17;100.00;-15917.19;4990682;28;51000;-58
2023/04/12 03:56:34;;;;;;;;;0.00;0.00;;;;;-147.17;100.00;-15917.19;4994239;28;51158;-58
2023/04/12 03:59:00;;;;;;;;;0.00;0.00;;;;;-147.17;100.00;-15917.19;4991508;28;51402;-58
2023/04/12 04:01:25;;;;;;;;;0.00;0.00;;;;;-147.17;100.00;-15917.19;4988951;28;51882;-58
2023/04/12 04:03:51;;;;;;;;;0.00;0.00;;;;;-147.17;100.00;-15917.19;4989660;28;51110;-58
2023/04/12 04:06:16;;;;;;;;;0.00;0.00;;;;;-147.17;100.00;-15917.19;4986412;28;52368;-58
2023/04/12 04:08:43;;;;;;;;;0.00;0.00;;;;;-147.17;100.00;-15917.19;4988432;28;51297;-58
2023/04/12 04:11:08;;;;;;;;;0.00;0.00;;;;;-147.17;100.00;-15917.19;4985863;28;52794;-58
2023/04/12 04:13:34;;;;;;;;;0.00;0.00;;;;;-147.17;100.00;-15917.19;4983995;28;51148;-58
2023/04/12 04:16:03;;;;;;;;;0.00;0.00;;;;;-147.17;100.00;-15917.19;4991742;28;52612;-59
2023/04/12 04:18:29;;;;;;;;;0.00;0.00;;;;;-147.17;100.00;-15917.19;4984424;28;51313;-58
2023/04/12 04:20:55;;;;;;;;;6.25;6.25;;;;;-147.17;100.00;-15917.19;4992613;28;51753;-59
2023/04/12 04:23:22;;;;;;;;;0.00;0.00;;;;;-147.17;100.00;-15917.19;4983034;28;51345;-59
2023/04/12 04:25:47;;;;;;;;;0.33;0.00;;;;;-147.17;100.00;-15917.19;4990711;28;51331;-58
2023/04/12 04:28:14;;;;;;;;;0.00;0.00;;;;;-147.17;100.00;-15917.19;4985725;28;51285;-59
2023/04/12 04:30:40;;;;;;;;;0.00;0.00;;;;;-147.17;100.00;-15917.19;4984009;28;53066;-59
2023/04/12 04:33:06;;;;;;;;;0.00;0.00;;;;;-147.17;100.00;-15917.19;4989197;28;51061;-59
2023/04/12 04:35:32;;;;;;;;;0.00;0.00;;;;;-147.17;100.00;-15917.19;4994972;28;51276;-58
2023/04/12 04:37:59;;;;;;;;;0.00;0.00;;;;;-147.17;100.00;-15917.19;4995378;28;50869;-59
2023/04/12 04:40:25;;;;;;;;;4.50;4.50;;;;;-147.17;100.00;-15917.19;4994909;28;51558;-59
2023/04/12 04:42:53;;;;;;;;;0.00;0.00;;;;;-147.17;100.00;-15917.19;4990567;28;52740;-58
2023/04/12 04:45:26;;;;;;;;;0.33;0.33;;;;;-147.17;100.00;-15917.19;4984164;28;51118;-59
2023/04/12 04:47:55;;;;;;;;;0.00;0.00;;;;;-147.17;100.00;-15917.19;4991294;28;51160;-59
2023/04/12 04:50:21;;;;;;;;;1.00;1.00;;;;;-147.17;100.00;-15917.19;4983958;28;52935;-59
2023/04/12 04:52:48;;;;;;;;;2.00;2.00;;;;;-147.17;100.00;-15917.19;4989958;28;51327;-61
2023/04/12 04:55:13;;;;;;;;;0.00;0.00;;;;;-147.17;100.00;-15917.19;4989096;28;50981;-59
2023/04/12 04:57:40;;;;;;;;;0.00;0.00;;;;;-147.17;100.00;-15917.19;4991903;28;50963;-59
2023/04/12 05:00:10;;;;;;;;;0.00;0.00;;;;;-147.17;100.00;-15917.19;4989156;28;53436;-59
2023/04/12 05:02:38;;;;;;;;;0.00;0.00;;;;;-147.17;100.00;-15917.19;4993269;28;51034;-59
2023/04/12 05:05:05;;;;;;;;;2.00;1.50;;;;;-147.17;100.00;-15917.19;4989556;28;51100;-59
2023/04/12 05:07:30;;;;;;;;;0.00;0.00;;;;;-147.17;100.00;-15917.19;5004659;28;51235;-58
2023/04/12 05:09:56;;;;;;;;;0.00;0.00;;;;;-147.17;100.00;-15917.19;5010268;28;52148;-58
2023/04/12 05:12:21;;;;;;;;;0.00;0.00;;;;;-147.17;100.00;-15917.19;5010309;28;51062;-59
2023/04/12 05:14:46;;;;;;;;;1.00;1.00;;;;;-147.17;100.00;-15917.19;4985165;28;51116;-59
2023/04/12 05:17:12;;;;;;;;;0.00;0.00;;;;;-147.17;100.00;-15917.19;5006872;28;51248;-59
2023/04/12 05:19:37;;;;;;;;;1.00;1.00;;;;;-147.17;100.00;-15917.19;5006890;28;52074;-59
2023/04/12 05:22:02;;;;;;;;;0.67;0.67;;;;;-147.17;100.00;-15917.19;5009576;28;59747;-59
2023/04/12 05:24:27;;;;;;;;;0.00;0.00;;;;;-147.17;100.00;-15917.19;5009280;28;51143;-58
2023/04/12 05:26:53;;;;;;;;;1.00;1.00;;;;;-147.17;100.00;-15917.19;5010396;28;51323;-59
2023/04/12 05:29:18;;;;;;;;;0.67;0.67;;;;;-147.17;100.00;-15917.19;4996950;28;52184;-59
2023/04/12 05:31:43;;;;;;;;;1.67;1.00;;;;;-147.17;100.00;-15917.19;4989611;28;59076;-58
2023/04/12 05:34:09;;;;;;;;;1.75;1.75;;;;;-147.17;100.00;-15917.19;4989855;28;51085;-59
2023/04/12 05:36:34;;;;;;;;;1.25;1.25;;;;;-147.17;100.00;-15917.19;4994783;28;51594;-59
2023/04/12 05:38:59;;;;;;;;;2.00;1.25;;;;;-147.17;100.00;-15917.19;4996273;28;51127;-59
2023/04/12 05:41:25;;;;;;;;;0.67;0.00;;;;;-147.17;100.00;-15917.19;5009462;28;62892;-58
2023/04/12 05:43:50;;;;;;;;;0.00;0.00;;;;;-147.17;100.00;-15917.19;5008583;28;51463;-58
2023/04/12 05:46:15;;;;;;;;;0.00;0.00;;;;;-147.17;100.00;-15917.19;5003645;28;51294;-58
2023/04/12 05:48:40;;;;;;;;;0.00;0.00;;;;;-147.17;100.00;-15917.19;4993350;28;57452;-58
2023/04/12 05:51:06;;;;;;;;;0.00;0.00;;;;;-147.17;100.00;-15917.19;4989675;28;59004;-58
2023/04/12 05:53:31;;;;;;;;;1.00;1.00;;;;;-147.17;100.00;-15917.19;4974245;28;51193;-59
2023/04/12 05:55:58;;;;;;;;;0.00;0.00;;;;;-147.17;100.00;-15917.19;5002600;28;51111;-58
2023/04/12 05:58:23;;;;;;;;;2.25;1.00;;;;;-147.17;100.00;-15917.19;5011360;28;51830;-58
2023/04/12 06:00:48;;;;;;;;;1.33;1.00;;;;;-147.17;100.00;-15917.19;4998430;28;51121;-58
2023/04/12 06:03:14;;;;;;;;;1.00;0.00;;;;;-147.17;100.00;-15917.19;4988526;28;51125;-58
2023/04/12 06:05:40;;;;;;;;;0.00;0.00;;;;;-147.17;100.00;-15917.19;4992449;28;51402;-59
2023/04/12 06:08:07;;;;;;;;;0.75;0.75;;;;;-147.17;100.00;-15917.19;4992181;28;51749;-58
2023/04/12 06:10:32;;;;;;;;;3.00;2.00;;;;;-147.17;100.00;-15917.19;4989537;28;51181;-58
2023/04/12 06:12:58;;;;;;;;;1.75;1.25;;;;;-147.17;100.00;-15917.19;4999153;28;51085;-59
2023/04/12 06:15:23;;;;;;;;;1.50;1.00;;;;;-147.17;100.00;-15917.19;5014408;28;51323;-58
2023/04/12 06:17:50;;;;;;;;;1.00;1.00;;;;;-147.17;100.00;-15917.19;5014795;28;52044;-58
2023/04/12 06:20:16;;;;;;;;;1.00;1.00;;;;;-147.17;100.00;-15917.19;5013802;28;51224;-58
2023/04/12 06:22:41;;;;;;;;;2.00;2.00;;;;;-147.17;100.00;-15917.19;5015023;28;51011;-58
2023/04/12 06:25:07;;;;;;;;;3.00;2.50;;;;;-147.17;100.00;-15917.19;5006580;28;51285;-58
2023/04/12 06:27:32;;;;;;;;;2.00;2.00;;;;;-147.17;100.00;-15917.19;4993267;28;53883;-58
2023/04/12 06:29:58;;;;;;;;;2.00;2.00;;;;;-147.17;100.00;-15917.19;4997694;28;50983;-57
2023/04/12 06:32:24;;;;;;;;;11.50;9.25;;;;;-147.17;100.00;-15917.19;5014774;28;51271;-58
2023/04/12 06:34:49;;;;;;;;;3.00;2.00;;;;;-147.17;100.00;-15917.19;5014976;28;51212;-56
2023/04/12 06:37:14;;;;;;;;;4.00;3.00;;;;;-147.17;100.00;-15917.19;5004773;28;53330;-57
2023/04/12 06:39:40;;;;;;;;;11.00;10.00;;;;;-147.17;100.00;-15917.19;4994765;28;51150;-58
2023/04/12 06:42:05;;;;;;;;;6.00;5.00;;;;;-147.17;100.00;-15917.19;4994525;28;51305;-59
2023/04/12 06:44:32;;;;;;;;;4.50;4.00;;;;;-147.17;100.00;-15917.19;4995203;28;51189;-58
2023/04/12 06:46:57;;;;;;;;;2.75;2.75;;;;;-147.17;100.00;-15917.19;4994316;28;52941;-58
2023/04/12 06:49:23;;;;;;;;;22.50;18.25;;;;;-147.17;100.00;-15917.19;4993186;28;51073;-58
2023/04/12 06:51:48;;;;;;;;;4.00;4.00;;;;;-147.17;100.00;-15917.19;4994825;28;51121;-58
2023/04/12 06:54:13;;;;;;;;;2.00;2.00;;;;;-147.17;100.00;-15917.19;4998070;28;51195;-58
2023/04/12 06:56:39;;;;;;;;;4.00;3.00;;;;;-147.17;100.00;-15917.19;5001218;28;52231;-59
2023/04/12 06:59:05;;;;;;;;;4.00;3.00;;;;;-147.17;100.00;-15917.19;4998983;28;51119;-59
2023/04/12 07:01:30;;;;;;;;;3.50;3.00;;;;;-147.17;100.00;-15917.19;4994568;28;50990;-59
2023/04/12 07:03:56;;;;;;;;;8.00;6.00;;;;;-147.17;100.00;-15917.19;4994799;28;51078;-59
2023/04/12 07:06:21;;;;;;;;;5.00;5.00;;;;;-147.17;100.00;-15917.19;4994039;28;52035;-59
2023/04/12 07:08:47;;;;;;;;;6.00;6.00;;;;;-147.17;100.00;-15917.19;4994330;28;51168;-58
2023/04/12 07:11:12;;;;;;;;;2.00;2.00;;;;;-147.17;100.00;-15917.19;4998069;28;51147;-59
2023/04/12 07:13:38;;;;;;;;;2.67;1.00;;;;;-147.17;100.00;-15917.19;5014704;28;51184;-57
2023/04/12 07:16:03;;;;;;;;;3.00;2.00;;;;;-147.17;100.00;-15917.19;4998741;28;53959;-59
2023/04/12 07:18:28;;;;;;;;;2.50;2.25;;;;;-147.17;100.00;-15917.19;4994518;28;51014;-58
2023/04/12 07:20:55;;;;;;;;;2.00;2.00;;;;;-147.17;100.00;-15917.19;4994606;28;51093;-59
2023/04/12 07:23:21;;;;;;;;;2.00;0.00;;;;;-147.17;100.00;-15917.19;4989991;28;51268;-58
2023/04/12 07:25:46;;;;;;;;;1.00;0.67;;;;;-147.17;100.00;-15917.19;4993212;28;51982;-58
2023/04/12 07:28:12;;;;;;;;;1.00;1.00;;;;;-147.17;100.00;-15917.19;4993769;28;51330;-58
2023/04/12 07:30:38;;;;;;;;;1.00;1.00;;;;;-147.17;100.00;-15917.19;4993293;28;54465;-59
2023/04/12 07:33:04;;;;;;;;;1.75;1.00;;;;;-147.17;100.00;-15917.19;4993591;28;51137;-59
2023/04/12 07:35:33;;;;;;;;;1.33;1.00;;;;;-147.17;100.00;-15917.19;4996291;28;51135;-60
2023/04/12 07:37:59;;;;;;;;;1.00;1.00;;;;;-147.17;100.00;-15917.19;4993811;28;50981;-58
2023/04/12 07:40:25;;;;;;;;;2.00;2.00;;;;;-147.17;100.00;-15917.19;4993790;28;51172;-59
2023/04/12 07:42:50;;;;;;;;;2.00;2.00;;;;;-147.17;100.00;-15917.19;4988309;28;50931;-60
2023/04/12 07:45:16;;;;;;;;;1.00;1.00;;;;;-147.17;100.00;-15917.19;4991986;28;52859;-58
2023/04/12 07:47:41;;;;;;;;;1.00;1.00;;;;;-147.17;100.00;-15917.19;4993350;28;51083;-58
2023/04/12 07:50:07;;;;;;;;;2.67;1.00;;;;;-147.17;100.00;-15917.19;4993564;28;51373;-58
2023/04/12 07:52:32;;;;;;;;;0.67;0.33;;;;;-147.17;100.00;-15917.19;4993776;28;51102;-58
2023/04/12 07:54:58;;;;;;;;;1.00;1.00;;;;;-147.17;100.00;-15917.19;4998623;28;51582;-58
2023/04/12 07:57:23;;;;;;;;;3.00;1.67;;;;;-147.17;100.00;-15917.19;4993002;28;51180;-58
2023/04/12 07:59:49;;;;;;;;;2.33;2.33;;;;;-147.17;100.00;-15917.19;4993109;28;50955;-57
2023/04/12 08:02:23;;;;;;;;;3.00;3.00;;;;;-147.17;100.00;-15917.19;4993084;28;51459;-60
2023/04/12 08:04:48;;;;;;;;;2.00;2.00;;;;;-147.17;100.00;-15917.19;4993092;28;51889;-60
2023/04/12 08:07:14;;;;;;;;;3.00;2.00;;;;;-147.17;100.00;-15917.19;4992708;28;51169;-59
2023/04/12 08:09:40;;;;;;;;;3.00;3.00;;;;;-147.17;100.00;-15917.19;4993327;28;52086;-59
2023/04/12 08:12:06;;;;;;;;;2.00;2.00;;;;;-147.17;100.00;-15917.19;4990362;28;51063;-59
2023/04/12 08:14:31;;;;;;;;;4.33;4.00;;;;;-147.17;100.00;-15917.19;4991451;28;51212;-60
2023/04/12 08:16:56;;;;;;;;;3.00;2.33;;;;;-147.17;100.00;-15917.19;4993180;28;51050;-59
2023/04/12 08:19:22;;;;;;;;;0.33;0.33;;;;;-147.17;100.00;-15917.19;4992009;28;51220;-59
2023/04/12 08:21:47;;;;;;;;;1.00;1.00;;;;;-147.17;100.00;-15917.19;4966859;28;51114;-59
2023/04/12 08:24:12;;;;;;;;;0.00;0.00;;;;;-147.17;100.00;-15917.19;4992565;28;54536;-60
2023/04/12 08:26:37;;;;;;;;;1.00;1.00;;;;;-147.17;100.00;-15917.19;4992579;28;52886;-59
2023/04/12 08:29:03;;;;;;;;;4.67;3.00;;;;;-147.17;100.00;-15917.19;4971978;28;51161;-59
2023/04/12 08:31:28;;;;;;;;;1.00;1.00;;;;;-147.17;100.00;-15917.19;4989930;28;51153;-59
2023/04/12 08:33:55;;;;;;;;;0.33;0.33;;;;;-147.17;100.00;-15917.19;4991496;28;51965;-59
2023/04/12 08:36:21;;;;;;;;;1.00;0.00;;;;;-147.17;100.00;-15917.19;4992574;28;51101;-59
2023/04/12 08:38:51;;;;;;;;;0.00;0.00;;;;;-147.17;100.00;-15917.19;4996487;28;51139;-58
2023/04/12 08:41:17;;;;;;;;;1.33;1.00;;;;;-147.17;100.00;-15917.19;4999818;28;50930;-60
2023/04/12 08:43:46;;;;;;;;;1.00;0.00;;;;;-147.17;100.00;-15917.19;4992785;28;51070;-59
2023/04/12 08:46:15;;;;;;;;;1.00;1.00;;;;;-147.17;100.00;-15917.19;4992349;28;51041;-59
2023/04/12 08:48:44;;;;;;;;;1.00;0.00;;;;;-147.17;100.00;-15917.19;4992078;28;51089;-60
2023/04/12 08:51:13;;;;;;;;;1.00;0.00;;;;;-147.17;100.00;-15917.19;4992718;28;51175;-59
2023/04/12 08:53:39;;;;;;;;;1.00;0.00;;;;;-147.17;100.00;-15420.25;4992013;28;52017;-59
2023/04/12 08:56:09;;;;;;;;;1.00;1.00;;;;;-147.17;100.00;-13437.75;4997670;28;51241;-60
2023/04/12 08:58:36;;;;;;;;;2.67;1.00;;;;;-147.17;100.00;-13933.50;4982128;28;51260;-60
2023/04/12 09:01:02;;;;;;;;;2.00;1.00;;;;;-147.17;100.00;-10462.09;4992295;28;51357;-60
2023/04/12 09:03:30;;;;;;;;;0.67;0.67;;;;;-147.17;100.00;-1272.53;4991747;28;52345;-60
2023/04/12 09:05:55;;;;;;;;;0.00;0.00;;;;;-147.17;100.00;-5745.88;4992359;28;51056;-60
2023/04/12 09:08:20;;;;;;;;;0.33;0.33;;;;;-147.17;100.00;-5994.25;4992241;28;51661;-60
2023/04/12 09:10:46;;;;;;;;;1.00;0.00;;;;;-147.17;100.00;-4006.88;4992350;28;51315;-60
2023/04/12 09:13:11;;;;;;;;;1.00;0.67;;;;;-147.17;100.00;717.28;4991791;28;54788;-60
2023/04/12 09:15:47;;;;;;;;;1.00;1.00;;;;;-147.17;100.00;2459.22;4992187;28;51224;-60
2023/04/12 09:18:13;;;;;;;;;1.00;0.67;;;;;-147.17;100.00;3952.94;4992060;28;51060;-61
2023/04/12 09:20:38;;;;;;;;;1.00;1.00;;;;;-147.17;100.00;9185.47;4992094;28;50897;-60
2023/04/12 09:23:21;;;;;;;;;0.67;0.67;;;;;-147.17;100.00;13925.81;4992140;28;53538;-60
2023/04/12 09:25:49;;;;;;;;;0.00;0.00;;;;;-147.17;100.00;8936.16;4992355;28;50986;-59
2023/04/12 09:28:22;;;;;;;;;2.00;2.00;;;;;-147.17;100.00;9434.84;4992229;28;50965;-60
2023/04/12 09:30:50;;;;;;;;;1.00;1.00;;;;;-147.17;100.00;6942.09;4998116;28;51311;-60
2023/04/12 09:33:21;;;;;;;;;2.00;2.00;;;;;-147.17;100.00;28412.53;4993128;28;51257;-61
2023/04/12 09:35:46;;;;;;;;;1.67;1.67;;;;;-147.17;100.00;25191.63;4996924;28;50952;-60
2023/04/12 09:38:12;;;;;;;;;1.33;1.00;;;;;-147.17;100.00;28502.56;4990011;28;51169;-60
2023/04/12 09:40:38;;;;;;;;;4.00;3.00;;;;;-147.17;100.00;29738.03;4992331;28;52402;-60
2023/04/12 09:43:04;;;;;;;;;3.00;3.00;;;;;-147.17;100.00;31495.00;4991329;28;51275;-60
2023/04/12 09:45:33;;;;;;;;;1.33;1.33;;;;;-147.17;100.00;32531.53;4992526;28;51348;-60
2023/04/12 09:47:58;;;;;;;;;3.67;3.33;;;;;-147.17;100.00;33339.00;4994752;28;51089;-61
2023/04/12 09:50:27;;;;;;;;;1.00;1.00;;;;;-147.17;100.00;33043.03;4995666;28;51079;-59
2023/04/12 09:52:56;;;;;;;;;0.00;0.00;;;;;-147.17;100.00;33137.09;4993654;28;54287;-59
2023/04/12 09:55:24;;;;;;;;;1.67;1.00;;;;;-147.17;100.00;36066.38;5000079;28;51090;-60
2023/04/12 09:57:51;;;;;;;;;1.00;1.00;;;;;-147.17;100.00;40749.16;4986958;28;51149;-60
2023/04/12 10:00:17;;;;;;;;;1.00;0.33;;;;;-147.17;100.00;40906.25;4989054;28;52425;-60
2023/04/12 10:02:45;;;;;;;;;6.00;6.00;;;;;-147.17;100.00;41577.94;4980213;28;52781;-60
2023/04/12 10:05:13;;;;;;;;;0.33;0.33;;;;;-147.17;100.00;40996.59;4980375;28;51287;-59
2023/04/12 10:07:42;;;;;;;;;1.67;1.67;;;;;-147.17;100.00;34956.38;4980226;28;51157;-59
2023/04/12 10:10:11;;;;;;;;;0.67;0.67;;;;;-147.17;100.00;35054.44;4971133;28;51227;-60
2023/04/12 10:12:39;;;;;;;;;1.67;1.33;;;;;-147.17;100.00;28451.69;4982467;28;53929;-60
2023/04/12 10:15:11;;;;;;;;;1.33;1.33;;;;;-147.17;100.00;34554.41;4991605;28;51486;-60
2023/04/12 10:17:44;;;;;;;;;1.00;1.00;;;;;-147.17;100.00;33983.91;4990869;28;51117;-59
2023/04/12 10:20:14;;;;;;;;;3.00;3.00;;;;;-147.17;100.00;39657.44;4985553;28;51200;-60
2023/04/12 10:22:41;;;;;;;;;2.00;1.33;;;;;-147.17;100.00;42644.66;4992239;28;52024;-60
2023/04/12 10:25:15;;;;;;;;;2.00;2.00;;;;;-147.17;100.00;43949.44;4995215;28;50960;-60
2023/04/12 10:27:42;;;;;;;;;2.00;1.00;;;;;-147.17;100.00;44562.69;4991143;28;51207;-60
2023/04/12 10:30:21;;;;;;;;;1.00;1.00;;;;;-147.17;100.00;46098.16;4987303;28;51085;-60
2023/04/12 10:33:08;;;;;;;;;1.00;1.00;;;;;-147.17;100.00;45889.72;4985545;28;52817;-60
2023/04/12 10:35:48;;;;;;;;;3.00;1.00;;;;;-147.17;100.00;44509.59;4977722;28;51339;-60
2023/04/12 10:38:15;;;;;;;;;3.00;3.00;;;;;-147.17;100.00;37314.06;4992061;28;51139;-59
2023/04/12 10:41:13;;;;;;;;;1.00;1.00;;;;;-147.17;100.00;35197.56;4989074;28;51271;-59
2023/04/12 10:43:47;;;;;;;;;1.00;1.00;;;;;-147.17;100.00;37421.97;4986208;28;50989;-59
2023/04/12 10:46:37;;;;;;;;;1.00;1.00;;;;;-147.17;100.00;40615.63;4979514;28;51322;-60
2023/04/12 10:49:12;;;;;;;;;1.00;1.00;;;;;-147.17;100.00;39129.38;4989876;28;51151;-60
2023/04/12 10:51:38;;;;;;;;;2.33;1.67;;;;;-147.17;100.00;42395.13;4984178;28;53138;-61
2023/04/12 10:54:07;;;;;;;;;3.33;2.33;;;;;-147.17;100.00;43208.56;4985444;28;52181;-61
2023/04/12 10:56:39;;;;;;;;;4.67;4.00;;;;;-147.17;100.00;42803.78;4982500;28;51149;-60
2023/04/12 10:59:09;;;;;;;;;1.00;1.00;;;;;-147.17;100.00;44057.53;4988936;28;51192;-60
2023/04/12 11:01:36;;;;;;;;;3.00;3.00;;;;;-147.17;100.00;44611.81;4988843;28;51262;-60
2023/04/12 11:04:16;;;;;;;;;1.00;1.00;;;;;-147.17;100.00;45429.63;4986999;28;50999;-59